Results: 2022 World Triathlon Age-Group Championships Abu Dhabi | 50-54 Male AG
Abu Dhabi, United Arab Emirates • 26 Nov, 2022
Pos First Name Last Name YOB Country Start
Num
Time Swim
1500m
T1 Bike
38.94km
T2 Run
8.77km
1 Udo Van Stevendaal 1968 GER 1808 02:02:21 00:23:56 00:02:54 00:55:04 00:01:53 00:38:36
2 Alberto Pasquarella 1972 ITA 1812 02:05:15 00:21:37 00:03:03 00:59:20 00:02:04 00:39:12
3 Tetsuro Fukumoto 1972 JPN 1813 02:08:11 00:23:58 00:03:06 00:57:55 00:02:03 00:41:13
4 Róbert Czigány Dr. 1968 HUN 1809 02:09:34 00:22:41 00:03:19 00:59:57 00:02:38 00:41:01
5 Stephen Greene 1970 GBR 1799 02:10:02 00:22:39 00:03:32 00:57:12 00:02:14 00:44:28
6 Rudolf Cogan 1971 CZE 1788 02:10:28 00:24:06 00:03:03 00:58:04 00:01:55 00:43:22
7 Mark Edmonds 1970 GBR 1795 02:11:46 00:22:36 00:03:31 00:58:52 00:02:04 00:44:45
8 Richard Brooke 1970 UAE 1831 02:13:25 00:24:30 00:03:35 00:57:07 00:02:38 00:45:38
9 Simon Evans 1972 GBR 1796 02:13:36 00:23:10 00:03:29 01:01:08 00:02:13 00:43:38
10 Chris Ball 1970 GBR 1791 02:14:26 00:24:59 00:04:07 00:59:25 00:02:40 00:43:16
11 Martin Liebeck 1969 UAE 1833 02:14:48 00:21:38 00:03:50 00:58:39 00:02:21 00:48:23
12 Rafał Wysocki 1971 POL 1822 02:15:41 00:26:05 00:03:31 00:59:33 00:02:22 00:44:12
13 Steve Zanutto 1971 USA 1777 02:17:32 00:24:53 00:03:29 01:01:54 00:02:31 00:44:47
14 Martin Flüeler 1972 SUI 1825 02:17:47 00:25:01 00:03:19 01:03:01 00:02:05 00:44:23
15 Kenneth Fine 1968 USA 1775 02:18:47 00:26:49 00:05:11 01:00:05 00:03:38 00:43:06
16 Paul O'Keefe 1971 GBR 1804 02:19:00 00:29:27 00:03:33 00:59:06 00:02:00 00:44:55
17 Martin Jeffery 1972 GBR 1802 02:19:06 00:25:44 00:03:29 00:59:52 00:02:12 00:47:49
18 David Levy 1972 CAN 1783 02:19:14 00:28:33 00:03:39 00:59:51 00:02:19 00:44:54
19 Carl Jochen Barrett 1970 CAN 1836 02:20:36 00:26:28 00:03:44 01:00:53 00:01:59 00:47:34
20 Mauricio García Hillon 1972 COL 1787 02:21:10 00:27:00 00:03:48 01:07:29 00:02:24 00:40:32
21 Lindsay Carswell 1972 CAN 1782 02:21:30 00:23:55 00:03:52 01:05:04 00:02:41 00:46:00
22 Jon Iannaccone 1971 USA 1776 02:21:49 00:27:01 00:03:54 01:02:21 00:02:17 00:46:18
23 Jeff Seaby 1972 CAN 1785 02:22:25 00:29:54 00:03:12 01:03:35 00:02:28 00:43:18
24 Toby Bedell 1971 IRL 1810 02:23:16 00:29:42 00:03:15 00:58:25 00:02:04 00:49:53
25 Andrew Martin 1969 AUS 1779 02:23:19 00:28:28 00:03:54 01:03:12 00:02:09 00:45:38
26 Jeremy Kirby 1970 GBR 1803 02:23:55 00:25:18 00:04:00 01:02:25 00:02:52 00:49:21
27 James Hall 1971 GBR 1800 02:24:33 00:28:46 00:03:41 01:00:55 00:02:27 00:48:47
28 Mark Halton 1972 GBR 1801 02:25:33 00:29:36 00:04:18 01:01:47 00:02:40 00:47:15
29 Ben Turcotte 1969 CAN 1786 02:25:55 00:27:39 00:03:47 01:01:03 00:02:41 00:50:48
30 Ian George 1969 GBR 1798 02:26:04 00:26:47 00:03:42 01:05:35 00:02:36 00:47:26
31 Aramis Abrami Franco 1971 MEX 1816 02:26:09 00:26:52 00:03:55 01:02:05 00:02:16 00:51:04
32 Tim Burnett 1969 GBR 1793 02:26:25 00:24:58 00:03:46 01:01:49 00:02:14 00:53:41
33 James Leibert 1970 AUS 1778 02:28:20 00:27:43 00:04:16 01:03:22 00:03:11 00:49:50
34 Neil Gardiner 1970 GBR 1797 02:28:23 00:29:37 00:04:07 01:01:50 00:02:17 00:50:35
35 Stefan Zakorchemney 1970 GBR 1807 02:28:25 00:30:19 00:03:48 01:03:14 00:03:27 00:47:40
36 Dylan Bogg 1969 GBR 1792 02:32:39 00:27:08 00:04:07 00:59:51 00:03:13 00:58:22
37 Arturo Javier Rico Hernandez 1969 MEX 1819 02:32:55 00:30:51 00:03:32 01:08:54 00:02:32 00:47:08
38 Jody Drulard 1971 SKN 1824 02:33:51 00:29:53 00:04:15 01:06:27 00:03:01 00:50:17
39 Maris Liepa 1970 LAT 1834 02:34:01 00:23:02 00:04:11 01:04:42 00:02:46 00:59:23
40 Laurent Deage 1969 FRA 1790 02:35:26 00:26:32 00:04:10 01:04:18 00:02:34 00:57:54
41 Iain Gauld 1969 NZL 1821 02:36:35 00:31:38 00:04:32 01:03:20 00:02:39 00:54:29
42 Komut Maneechai 1971 THA 1829 02:38:26 00:36:46 00:05:09 01:05:38 00:03:04 00:47:52
43 Ignacio Garcia Rodriguez 1969 ESP 1789 02:40:53 00:29:38 00:04:25 01:15:37 00:03:11 00:48:03
44 Nathapon Chantaraseno Chantaraseno 1970 THA 1828 02:42:36 00:31:59 00:06:59 01:05:34 00:02:29 00:55:37
45 Miguel Ganem Morales 1968 MEX 1817 02:43:26 00:32:16 00:03:40 01:08:04 00:02:21 00:57:06
46 Rory Perron 1968 CAN 1784 02:44:09 00:31:58 00:04:11 01:09:32 00:02:43 00:55:47
47 Rene Krummenacher 1972 SUI 1827 02:46:32 00:27:24 00:04:09 01:07:11 00:02:39 01:05:12
48 Eric Lecocq 1969 UAE 1835 03:02:16 00:34:13 00:04:53 01:17:14 00:04:06 01:01:51
49 Kevin Brawn 1968 CAN 1781 03:02:28 00:32:34 00:05:06 01:13:56 00:03:11 01:07:42
50 Stuart Bridges 1971 UAE 1830 03:08:12 00:39:26 00:05:12 01:16:09 00:02:55 01:04:32
DNF Tony Clare 1970 GBR 1794 DNF 00:27:58 00:02:59 00:00:00 00:00:00 00:00:00
DNF Federico Banti 1970 ITA 1811 DNF 00:21:34 00:03:05 00:00:00 00:00:00 00:00:00
DSQ Douglas Fogoz 1971 SUI 1826 DSQ 00:30:37 00:04:41 01:05:08 00:02:24 00:00:00
DNS Sebastien Ferreira 1972 UAE 1832 DNS 00:00:00 00:00:00 00:00:00 00:00:00 00:00:00
Program notes:

Technical Delegates: Thanos Nikopoulos/GRE, Howard Vine/GBR, Laura Patti /ITA), Beryl Campbell/RSA, Rick Fulton/ZIM, Abbas Moosa Buhassan/BHR.
Head Referees: Laura Patti/ITA, Juliet Fahey/NZL, Jane Vine/GBR.
Distances: Swim 1500 m. (1 lap), bike 38.44 km (2 laps), run 10.38 km (connection + 2 laps).
Water temperature: 27.1ºC, air temperature 20.1ºC. Wetsuits not allowed.
Athlete #1826 Fogoz/SUI was disqualified because he did not complete the course.